createdAt,value
2023-10-19T00:02:20.594Z,-80
2023-10-19T00:04:49.156Z,-80
2023-10-19T00:07:18.809Z,-81
2023-10-19T00:09:52.670Z,-80
2023-10-19T00:12:23.466Z,-80
2023-10-19T00:14:52.147Z,-80
2023-10-19T00:17:22.313Z,-80
2023-10-19T00:20:11.047Z,-79
2023-10-19T00:22:39.878Z,-79
2023-10-19T00:25:14.836Z,-81
2023-10-19T00:27:43.849Z,-81
2023-10-19T00:30:13.691Z,-80
2023-10-19T00:32:42.631Z,-81
2023-10-19T00:35:28.519Z,-82
2023-10-19T00:38:13.798Z,-82
2023-10-19T00:40:48.476Z,-81
2023-10-19T00:43:29.432Z,-81
2023-10-19T00:45:59.097Z,-80
2023-10-19T00:48:30.126Z,-80
2023-10-19T00:51:08.422Z,-80
2023-10-19T00:53:40.755Z,-80
2023-10-19T00:56:10.793Z,-80
2023-10-19T00:58:42.980Z,-80
2023-10-19T01:01:11.655Z,-81
2023-10-19T01:03:40.691Z,-81
2023-10-19T01:06:11.050Z,-80
2023-10-19T01:08:46.445Z,-81
2023-10-19T01:11:16.771Z,-80
2023-10-19T01:13:48.058Z,-80
2023-10-19T01:16:23.336Z,-80
2023-10-19T01:18:54.998Z,-82
2023-10-19T01:21:28.653Z,-81
2023-10-19T01:23:59.932Z,-81
2023-10-19T01:26:28.643Z,-82
2023-10-19T01:29:02.328Z,-81
2023-10-19T01:31:39.542Z,-80
2023-10-19T01:34:10.659Z,-81
2023-10-19T01:36:43.637Z,-79
2023-10-19T01:39:13.088Z,-80
2023-10-19T01:41:42.868Z,-80
2023-10-19T01:44:14.942Z,-80
2023-10-19T01:46:45.512Z,-81
2023-10-19T01:49:12.886Z,-79
2023-10-19T01:51:41.626Z,-80
2023-10-19T01:54:09.269Z,-79
2023-10-19T01:56:40.152Z,-80
2023-10-19T01:59:09.417Z,-79
2023-10-19T02:01:43.120Z,-80
2023-10-19T02:04:10.902Z,-81
2023-10-19T02:06:40.407Z,-79
2023-10-19T02:09:18.998Z,-80
2023-10-19T02:11:50.144Z,-81
2023-10-19T02:14:20.297Z,-79
2023-10-19T02:16:52.855Z,-79
2023-10-19T02:19:22.266Z,-81
2023-10-19T02:21:49.883Z,-80
2023-10-19T02:24:18.232Z,-79
2023-10-19T02:26:51.214Z,-80
2023-10-19T02:29:19.896Z,-79
2023-10-19T02:31:48.930Z,-79
2023-10-19T02:34:17.714Z,-81
2023-10-19T02:36:46.250Z,-81
2023-10-19T02:39:16.539Z,-80
2023-10-19T02:41:45.391Z,-79
2023-10-19T02:44:23.821Z,-80
2023-10-19T02:46:53.604Z,-81
2023-10-19T02:49:23.927Z,-80
2023-10-19T02:51:52.478Z,-81
2023-10-19T02:54:24.175Z,-80
2023-10-19T02:56:54.230Z,-80
2023-10-19T02:59:25.449Z,-80
2023-10-19T03:01:56.218Z,-79
2023-10-19T03:04:24.845Z,-80
2023-10-19T03:06:53.767Z,-80
2023-10-19T03:09:30.174Z,-81
2023-10-19T03:12:01.300Z,-81
2023-10-19T03:14:33.228Z,-81
2023-10-19T03:17:02.013Z,-80
2023-10-19T03:19:30.912Z,-80
2023-10-19T03:22:02.487Z,-80
2023-10-19T03:24:42.145Z,-80
2023-10-19T03:27:14.665Z,-80
2023-10-19T03:29:47.527Z,-80
2023-10-19T03:32:17.572Z,-79
2023-10-19T03:34:49.122Z,-80
2023-10-19T03:37:20.738Z,-79
2023-10-19T03:39:49.829Z,-81
2023-10-19T03:42:22.243Z,-80
2023-10-19T03:44:55.304Z,-81
2023-10-19T03:47:27.271Z,-80
2023-10-19T03:49:56.115Z,-80
2023-10-19T03:52:28.383Z,-81
2023-10-19T03:54:56.602Z,-79
2023-10-19T03:57:26.380Z,-79
2023-10-19T03:59:58.689Z,-80
2023-10-19T04:02:30.148Z,-82
2023-10-19T04:04:59.411Z,-80
2023-10-19T04:07:32.788Z,-82
2023-10-19T04:10:10.515Z,-81
2023-10-19T04:12:43.956Z,-80
2023-10-19T04:15:17.037Z,-81
2023-10-19T04:17:46.075Z,-82
2023-10-19T04:20:30.506Z,-82
2023-10-19T04:23:00.252Z,-80
2023-10-19T04:25:28.919Z,-80
2023-10-19T04:27:58.423Z,-81
2023-10-19T04:30:28.769Z,-80
2023-10-19T04:32:59.706Z,-80
2023-10-19T04:35:31.547Z,-81
2023-10-19T04:38:01.138Z,-81
2023-10-19T04:40:29.876Z,-81
2023-10-19T04:42:58.421Z,-81
2023-10-19T04:45:28.242Z,-81
2023-10-19T04:47:56.676Z,-81
2023-10-19T04:50:25.210Z,-80
2023-10-19T04:52:53.766Z,-81
2023-10-19T04:55:22.144Z,-80
2023-10-19T04:57:50.401Z,-81
2023-10-19T05:00:22.137Z,-81
2023-10-19T05:02:53.424Z,-79
2023-10-19T05:05:22.098Z,-80
2023-10-19T05:07:50.453Z,-80
2023-10-19T05:10:18.823Z,-79
2023-10-19T05:12:47.554Z,-81
2023-10-19T05:15:17.378Z,-80
2023-10-19T05:17:46.682Z,-81
2023-10-19T05:20:16.739Z,-79
2023-10-19T05:22:45.581Z,-80
2023-10-19T05:25:14.024Z,-80
2023-10-19T05:27:43.871Z,-79
2023-10-19T05:30:12.734Z,-80
2023-10-19T05:32:41.464Z,-81
2023-10-19T05:35:14.627Z,-78
2023-10-19T05:37:44.421Z,-81
2023-10-19T05:40:16.393Z,-79
2023-10-19T05:42:45.081Z,-81
2023-10-19T05:45:17.564Z,-80
2023-10-19T05:47:46.176Z,-81
2023-10-19T05:50:16.465Z,-80
2023-10-19T05:52:48.772Z,-81
2023-10-19T05:55:19.209Z,-80
2023-10-19T05:57:47.342Z,-79
2023-10-19T06:00:16.624Z,-80
2023-10-19T06:02:47.788Z,-81
2023-10-19T06:05:18.467Z,-79
2023-10-19T06:07:49.538Z,-80
2023-10-19T06:10:21.886Z,-81
2023-10-19T06:12:52.378Z,-80
2023-10-19T06:15:23.483Z,-80
2023-10-19T06:17:52.400Z,-81
2023-10-19T06:20:27.249Z,-79
2023-10-19T06:22:58.259Z,-79
2023-10-19T06:25:27.566Z,-80
2023-10-19T06:27:58.545Z,-79
2023-10-19T06:30:27.831Z,-79
2023-10-19T06:32:58.735Z,-79
2023-10-19T06:35:27.010Z,-80
2023-10-19T06:37:57.472Z,-78
2023-10-19T06:40:27.628Z,-79
2023-10-19T06:42:58.044Z,-80
2023-10-19T06:45:26.614Z,-80
2023-10-19T06:47:55.624Z,-78
2023-10-19T06:50:25.315Z,-80
2023-10-19T06:52:55.918Z,-79
2023-10-19T06:55:26.864Z,-78
2023-10-19T06:57:56.928Z,-79
2023-10-19T07:00:27.810Z,-79
2023-10-19T07:02:59.115Z,-78
2023-10-19T07:05:30.875Z,-79
2023-10-19T07:08:01.220Z,-79
2023-10-19T07:10:33.833Z,-80
2023-10-19T07:13:02.151Z,-78
2023-10-19T07:15:31.497Z,-80
2023-10-19T07:18:00.783Z,-79
2023-10-19T07:20:33.026Z,-79
2023-10-19T07:23:07.067Z,-79
2023-10-19T07:25:44.588Z,-80
2023-10-19T07:28:13.985Z,-79
2023-10-19T07:30:43.631Z,-79
2023-10-19T07:33:12.262Z,-80
2023-10-19T07:35:43.712Z,-79
2023-10-19T07:38:12.483Z,-79
2023-10-19T07:40:42.354Z,-79
2023-10-19T07:43:10.994Z,-79
2023-10-19T07:45:39.512Z,-79
2023-10-19T07:48:08.912Z,-80
2023-10-19T07:50:38.125Z,-79
2023-10-19T07:53:07.113Z,-79
2023-10-19T07:55:35.527Z,-79
2023-10-19T07:58:06.019Z,-79
2023-10-19T08:00:35.217Z,-79
2023-10-19T08:03:04.342Z,-79
2023-10-19T08:05:33.289Z,-79
2023-10-19T08:08:02.381Z,-79
2023-10-19T08:10:30.830Z,-78
2023-10-19T08:13:00.399Z,-79
2023-10-19T08:15:32.129Z,-79
2023-10-19T08:18:00.724Z,-79
2023-10-19T08:20:32.305Z,-80
2023-10-19T08:23:03.040Z,-79
2023-10-19T08:25:43.939Z,-79
2023-10-19T08:28:21.309Z,-79
2023-10-19T08:30:59.249Z,-79
2023-10-19T08:33:28.435Z,-79
2023-10-19T08:35:57.762Z,-78
2023-10-19T08:38:26.650Z,-79
2023-10-19T08:40:56.041Z,-79
2023-10-19T08:43:25.762Z,-78
2023-10-19T08:45:56.919Z,-78
2023-10-19T08:48:25.773Z,-78
2023-10-19T08:50:54.711Z,-79
2023-10-19T08:53:23.805Z,-79
2023-10-19T08:55:55.605Z,-78
2023-10-19T08:58:24.489Z,-79
2023-10-19T09:00:57.073Z,-79
2023-10-19T09:03:27.445Z,-78
2023-10-19T09:05:58.055Z,-79
2023-10-19T09:08:26.833Z,-78
2023-10-19T09:10:56.990Z,-77
2023-10-19T09:13:26.313Z,-80
2023-10-19T09:15:57.232Z,-79
2023-10-19T09:18:29.960Z,-79
2023-10-19T09:21:09.295Z,-80
2023-10-19T09:23:38.592Z,-79
2023-10-19T09:26:08.865Z,-80
2023-10-19T09:28:39.296Z,-80
2023-10-19T09:31:11.682Z,-79
2023-10-19T09:33:43.340Z,-79
2023-10-19T09:36:15.278Z,-79
2023-10-19T09:38:49.777Z,-78
2023-10-19T09:41:19.941Z,-78
2023-10-19T09:43:49.467Z,-78
2023-10-19T09:46:24.167Z,-79
2023-10-19T09:48:53.283Z,-79
2023-10-19T09:51:22.093Z,-78
2023-10-19T09:53:52.301Z,-78
2023-10-19T09:56:24.298Z,-78
2023-10-19T09:58:56.914Z,-79
2023-10-19T10:01:27.422Z,-77
2023-10-19T10:03:58.639Z,-77
2023-10-19T10:06:31.232Z,-78
2023-10-19T10:09:01.550Z,-78
2023-10-19T10:11:30.432Z,-78
2023-10-19T10:13:59.508Z,-78
2023-10-19T10:16:30.655Z,-79
2023-10-19T10:19:01.860Z,-78
2023-10-19T10:21:31.851Z,-78
2023-10-19T10:24:01.910Z,-78
2023-10-19T10:26:36.621Z,-77
2023-10-19T10:29:13.295Z,-78
2023-10-19T10:31:47.339Z,-77
2023-10-19T10:34:46.086Z,-78
2023-10-19T10:37:16.153Z,-78
2023-10-19T10:39:46.530Z,-78
2023-10-19T10:42:16.099Z,-78
2023-10-19T10:44:45.807Z,-79
2023-10-19T10:47:23.024Z,-79
2023-10-19T10:49:56.605Z,-78
2023-10-19T10:52:30.889Z,-79
2023-10-19T10:55:00.274Z,-78
2023-10-19T10:57:34.483Z,-79
2023-10-19T11:00:09.163Z,-79
2023-10-19T11:02:43.994Z,-79
2023-10-19T11:05:14.422Z,-78
2023-10-19T11:07:43.354Z,-79
2023-10-19T11:10:12.483Z,-78
2023-10-19T11:12:41.067Z,-77
2023-10-19T11:15:12.079Z,-79
2023-10-19T11:17:57.228Z,-78
2023-10-19T11:20:28.338Z,-78
2023-10-19T11:23:01.933Z,-78
2023-10-19T11:25:31.505Z,-78
2023-10-19T11:28:01.122Z,-77
2023-10-19T11:30:30.607Z,-78
2023-10-19T11:33:02.432Z,-77
2023-10-19T11:35:32.648Z,-77
2023-10-19T11:38:03.824Z,-78
2023-10-19T11:40:32.631Z,-77
2023-10-19T11:43:02.195Z,-78
2023-10-19T11:45:31.181Z,-79
2023-10-19T11:48:01.025Z,-79
2023-10-19T11:50:29.643Z,-77
2023-10-19T11:52:58.493Z,-79
2023-10-19T11:55:27.315Z,-79
2023-10-19T11:57:55.424Z,-78
2023-10-19T12:00:26.236Z,-79
2023-10-19T12:02:54.874Z,-79
2023-10-19T12:05:25.374Z,-80
2023-10-19T12:07:54.019Z,-79
2023-10-19T12:10:27.838Z,-78
2023-10-19T12:13:01.866Z,-80
2023-10-19T12:15:32.138Z,-79
2023-10-19T12:18:01.422Z,-79
2023-10-19T12:20:32.386Z,-78
2023-10-19T12:23:02.195Z,-78
2023-10-19T12:25:50.141Z,-79
2023-10-19T12:28:21.924Z,-77
2023-10-19T12:30:50.313Z,-78
2023-10-19T12:33:21.233Z,-77
2023-10-19T12:35:53.002Z,-77
2023-10-19T12:38:22.392Z,-79
2023-10-19T12:40:52.492Z,-78
2023-10-19T12:43:23.598Z,-78
2023-10-19T12:45:56.061Z,-78
2023-10-19T12:48:26.794Z,-79
2023-10-19T12:50:56.970Z,-78
2023-10-19T12:53:26.280Z,-78
2023-10-19T12:55:55.387Z,-79
2023-10-19T12:58:23.893Z,-78
2023-10-19T13:00:53.172Z,-79
2023-10-19T13:03:23.050Z,-79
2023-10-19T13:05:52.083Z,-78
2023-10-19T13:08:22.264Z,-79
2023-10-19T13:10:53.339Z,-79
2023-10-19T13:13:25.425Z,-79
2023-10-19T13:15:54.990Z,-78
2023-10-19T13:18:29.224Z,-78
2023-10-19T13:21:00.103Z,-78
2023-10-19T13:23:31.481Z,-78
2023-10-19T13:26:12.072Z,-79
2023-10-19T13:28:42.353Z,-79
2023-10-19T13:31:11.351Z,-78
2023-10-19T13:33:40.154Z,-79
2023-10-19T13:36:08.854Z,-78
2023-10-19T13:38:39.216Z,-78
2023-10-19T13:41:08.954Z,-78
2023-10-19T13:43:39.483Z,-78
2023-10-19T13:46:08.288Z,-79
2023-10-19T13:48:37.437Z,-78
2023-10-19T13:51:14.408Z,-79
2023-10-19T13:53:46.335Z,-79
2023-10-19T13:56:16.039Z,-77
2023-10-19T13:58:44.759Z,-79
2023-10-19T14:01:17.350Z,-79
2023-10-19T14:03:47.202Z,-78
2023-10-19T14:06:16.248Z,-77
2023-10-19T14:08:46.466Z,-77
2023-10-19T14:11:14.799Z,-76
2023-10-19T14:13:43.906Z,-77
2023-10-19T14:16:12.962Z,-77
2023-10-19T14:18:41.542Z,-77
2023-10-19T14:21:15.233Z,-77
2023-10-19T14:23:45.753Z,-77
2023-10-19T14:26:15.873Z,-78
2023-10-19T14:28:44.295Z,-78
2023-10-19T14:31:13.578Z,-76
2023-10-19T14:33:43.457Z,-79
2023-10-19T14:36:12.396Z,-79
2023-10-19T14:38:42.364Z,-78
2023-10-19T14:41:11.255Z,-79
2023-10-19T14:43:44.387Z,-79
2023-10-19T14:46:17.757Z,-78
2023-10-19T14:48:48.140Z,-79
2023-10-19T14:51:16.279Z,-79
2023-10-19T14:53:46.116Z,-79
2023-10-19T14:56:14.517Z,-78
2023-10-19T14:58:44.235Z,-78
2023-10-19T15:01:17.964Z,-78
2023-10-19T15:03:46.538Z,-76
2023-10-19T15:06:15.676Z,-76
2023-10-19T15:08:43.854Z,-77
2023-10-19T15:11:12.278Z,-77
2023-10-19T15:13:40.382Z,-77
2023-10-19T15:16:15.063Z,-78
2023-10-19T15:18:43.291Z,-78
2023-10-19T15:21:12.374Z,-77
2023-10-19T15:23:42.377Z,-78
2023-10-19T15:26:10.731Z,-77
2023-10-19T15:28:39.682Z,-77
2023-10-19T15:31:08.842Z,-78
2023-10-19T15:33:40.790Z,-77
2023-10-19T15:36:09.234Z,-77
2023-10-19T15:38:37.701Z,-77
2023-10-19T15:41:06.090Z,-77
2023-10-19T15:43:34.291Z,-77
2023-10-19T15:46:04.312Z,-76
2023-10-19T15:48:35.834Z,-76
2023-10-19T15:51:07.608Z,-77
2023-10-19T15:53:37.440Z,-78
2023-10-19T15:56:11.762Z,-77
2023-10-19T15:58:39.920Z,-77
2023-10-19T16:01:09.284Z,-75
2023-10-19T16:03:38.868Z,-76
2023-10-19T16:06:10.460Z,-79
2023-10-19T16:08:39.077Z,-78
2023-10-19T16:11:08.352Z,-77
2023-10-19T16:13:37.344Z,-77
2023-10-19T16:16:05.887Z,-77
2023-10-19T16:18:34.138Z,-77
2023-10-19T16:21:05.901Z,-77
2023-10-19T16:23:36.134Z,-77
2023-10-19T16:26:04.953Z,-77
2023-10-19T16:28:34.173Z,-76
2023-10-19T16:31:07.180Z,-77
2023-10-19T16:33:36.685Z,-77
2023-10-19T16:36:05.729Z,-78
2023-10-19T16:38:35.526Z,-78
2023-10-19T16:41:04.090Z,-77
2023-10-19T16:43:32.293Z,-77
2023-10-19T16:46:01.906Z,-77
2023-10-19T16:48:30.154Z,-77
2023-10-19T16:51:03.099Z,-78
2023-10-19T16:53:31.458Z,-78
2023-10-19T16:56:03.340Z,-78
2023-10-19T16:58:31.842Z,-77
2023-10-19T17:01:00.294Z,-79
2023-10-19T17:03:30.421Z,-77
2023-10-19T17:05:58.767Z,-77
2023-10-19T17:08:27.033Z,-77
2023-10-19T17:10:56.103Z,-77
2023-10-19T17:13:27.522Z,-78
2023-10-19T17:15:56.358Z,-78
2023-10-19T17:18:24.600Z,-78
2023-10-19T17:20:53.322Z,-77
2023-10-19T17:23:21.981Z,-77
2023-10-19T17:25:51.969Z,-77
2023-10-19T17:28:22.502Z,-77
2023-10-19T17:30:53.211Z,-79
2023-10-19T17:33:21.817Z,-78
2023-10-19T17:35:50.795Z,-77
2023-10-19T17:38:19.687Z,-77
2023-10-19T17:40:48.064Z,-78
2023-10-19T17:43:16.422Z,-77
2023-10-19T17:45:48.979Z,-77
2023-10-19T17:48:20.449Z,-77
2023-10-19T17:50:48.541Z,-77
2023-10-19T17:53:19.461Z,-77
2023-10-19T17:55:48.330Z,-79
2023-10-19T17:58:16.637Z,-79
2023-10-19T18:00:45.936Z,-78
2023-10-19T18:03:15.126Z,-79
2023-10-19T18:05:57.036Z,-77
2023-10-19T18:08:25.813Z,-77
2023-10-19T18:10:55.189Z,-79
2023-10-19T18:13:27.650Z,-78
2023-10-19T18:15:56.300Z,-78
2023-10-19T18:18:26.734Z,-79
2023-10-19T18:20:59.764Z,-78
2023-10-19T18:23:28.101Z,-78
2023-10-19T18:25:57.205Z,-77
2023-10-19T18:28:26.054Z,-78
2023-10-19T18:30:58.556Z,-78
2023-10-19T18:33:28.607Z,-78
2023-10-19T18:36:01.398Z,-78
2023-10-19T18:38:32.222Z,-77
2023-10-19T18:41:02.057Z,-77
2023-10-19T18:43:31.483Z,-79
2023-10-19T18:46:00.426Z,-79
2023-10-19T18:48:29.801Z,-78
2023-10-19T18:51:02.159Z,-78
2023-10-19T18:53:30.666Z,-78
2023-10-19T18:55:59.368Z,-81
2023-10-19T18:58:28.425Z,-77
2023-10-19T19:00:58.873Z,-78
2023-10-19T19:03:27.501Z,-79
2023-10-19T19:05:58.736Z,-78
2023-10-19T19:08:29.898Z,-77
2023-10-19T19:11:00.572Z,-79
2023-10-19T19:13:29.042Z,-78
2023-10-19T19:15:59.837Z,-77
2023-10-19T19:18:28.436Z,-77
2023-10-19T19:20:57.106Z,-78
2023-10-19T19:23:25.574Z,-78
2023-10-19T19:25:55.705Z,-79
2023-10-19T19:28:24.866Z,-78
2023-10-19T19:30:56.192Z,-80
2023-10-19T19:33:24.371Z,-77
2023-10-19T19:35:52.881Z,-78
2023-10-19T19:38:22.343Z,-79
2023-10-19T19:40:51.251Z,-79
2023-10-19T19:43:21.412Z,-77
2023-10-19T19:45:52.890Z,-80
2023-10-19T19:48:24.596Z,-78
2023-10-19T19:50:53.141Z,-77
2023-10-19T19:53:21.773Z,-77
2023-10-19T19:55:51.552Z,-77
2023-10-19T19:58:21.827Z,-77
2023-10-19T20:00:50.056Z,-79
2023-10-19T20:03:20.318Z,-78
2023-10-19T20:05:52.506Z,-78
2023-10-19T20:08:22.140Z,-79
2023-10-19T20:10:51.794Z,-78
2023-10-19T20:13:23.114Z,-79
2023-10-19T20:16:02.056Z,-78
2023-10-19T20:18:33.265Z,-78
2023-10-19T20:21:02.470Z,-79
2023-10-19T20:23:32.042Z,-77
2023-10-19T20:26:03.150Z,-78
2023-10-19T20:28:33.627Z,-77
2023-10-19T20:31:01.987Z,-78
2023-10-19T20:33:32.242Z,-79
2023-10-19T20:36:01.974Z,-78
2023-10-19T20:38:30.298Z,-77
2023-10-19T20:40:58.773Z,-77
2023-10-19T20:43:28.253Z,-76
2023-10-19T20:45:58.180Z,-76
2023-10-19T20:48:26.778Z,-77
2023-10-19T20:50:54.988Z,-79
2023-10-19T20:53:24.717Z,-78
2023-10-19T20:55:52.988Z,-77
2023-10-19T20:58:24.077Z,-78
2023-10-19T21:00:52.804Z,-78
2023-10-19T21:03:22.787Z,-79
2023-10-19T21:05:51.351Z,-77
2023-10-19T21:08:19.765Z,-77
2023-10-19T21:10:48.361Z,-78
2023-10-19T21:13:16.788Z,-78
2023-10-19T21:15:45.308Z,-78
2023-10-19T21:18:13.634Z,-78
2023-10-19T21:20:44.056Z,-78
2023-10-19T21:23:12.290Z,-77
2023-10-19T21:25:40.454Z,-78
2023-10-19T21:28:09.493Z,-78
2023-10-19T21:30:38.039Z,-78
2023-10-19T21:33:07.145Z,-77
2023-10-19T21:35:39.983Z,-76
2023-10-19T21:38:12.013Z,-78
2023-10-19T21:40:43.530Z,-77
2023-10-19T21:43:12.380Z,-77
2023-10-19T21:45:41.787Z,-77
2023-10-19T21:48:10.675Z,-78
2023-10-19T21:50:39.352Z,-78
2023-10-19T21:53:09.904Z,-78
2023-10-19T21:55:39.304Z,-78
2023-10-19T21:58:07.807Z,-77
2023-10-19T22:00:36.646Z,-77
2023-10-19T22:05:37.554Z,-78
2023-10-19T22:08:06.793Z,-78
2023-10-19T22:10:37.003Z,-77
2023-10-19T22:13:05.406Z,-77
2023-10-19T22:15:33.603Z,-76
2023-10-19T22:18:01.844Z,-78
2023-10-19T22:20:32.132Z,-78
2023-10-19T22:23:00.509Z,-78
2023-10-19T22:25:29.934Z,-77
2023-10-19T22:27:59.909Z,-77
2023-10-19T22:30:28.626Z,-79
2023-10-19T22:32:57.013Z,-78
2023-10-19T22:35:29.167Z,-77
2023-10-19T22:37:57.352Z,-77
2023-10-19T22:40:25.809Z,-77
2023-10-19T22:42:56.537Z,-78
2023-10-19T22:45:26.212Z,-79
2023-10-19T22:47:54.691Z,-77
2023-10-19T22:50:26.213Z,-77
2023-10-19T22:52:54.738Z,-77
2023-10-19T22:55:22.986Z,-78
2023-10-19T22:57:53.547Z,-78
2023-10-19T23:00:22.741Z,-77
2023-10-19T23:02:52.806Z,-77
2023-10-19T23:05:22.231Z,-78
2023-10-19T23:07:52.567Z,-78
2023-10-19T23:10:22.832Z,-77
2023-10-19T23:12:53.792Z,-77
2023-10-19T23:15:32.474Z,-77
2023-10-19T23:18:04.177Z,-79
2023-10-19T23:20:34.072Z,-77
2023-10-19T23:23:05.652Z,-76
2023-10-19T23:25:35.488Z,-77
2023-10-19T23:28:06.525Z,-77
2023-10-19T23:30:37.118Z,-77
2023-10-19T23:33:08.758Z,-77
2023-10-19T23:35:37.870Z,-77
2023-10-19T23:38:08.055Z,-77
2023-10-19T23:40:36.534Z,-77
2023-10-19T23:43:06.412Z,-78
2023-10-19T23:45:35.281Z,-78
2023-10-19T23:48:04.042Z,-78
2023-10-19T23:50:35.042Z,-78
2023-10-19T23:53:03.798Z,-78
2023-10-19T23:55:32.155Z,-78
2023-10-19T23:58:01.195Z,-78
